sensor_id;sensor_type;location;lat;lon;timestamp;P1;durP1;ratioP1;P2;durP2;ratioP2
10565;SDS011;5331;48.148;16.326;2022-07-29T00:00:11;4.97;;;4.57;;
10565;SDS011;5331;48.148;16.326;2022-07-29T00:02:39;5.40;;;5.00;;
10565;SDS011;5331;48.148;16.326;2022-07-29T00:05:07;5.50;;;5.10;;
10565;SDS011;5331;48.148;16.326;2022-07-29T00:07:34;5.13;;;4.72;;
10565;SDS011;5331;48.148;16.326;2022-07-29T00:10:01;4.75;;;4.43;;
10565;SDS011;5331;48.148;16.326;2022-07-29T00:12:30;5.40;;;4.90;;
10565;SDS011;5331;48.148;16.326;2022-07-29T00:14:57;5.53;;;5.03;;
10565;SDS011;5331;48.148;16.326;2022-07-29T00:17:24;5.28;;;4.88;;
10565;SDS011;5331;48.148;16.326;2022-07-29T00:19:51;5.85;;;5.07;;
10565;SDS011;5331;48.148;16.326;2022-07-29T00:22:18;5.22;;;4.78;;
10565;SDS011;5331;48.148;16.326;2022-07-29T00:24:46;5.20;;;4.78;;
10565;SDS011;5331;48.148;16.326;2022-07-29T00:27:13;5.50;;;5.10;;
10565;SDS011;5331;48.148;16.326;2022-07-29T00:29:42;6.10;;;5.50;;
10565;SDS011;5331;48.148;16.326;2022-07-29T00:32:09;5.47;;;5.07;;
10565;SDS011;5331;48.148;16.326;2022-07-29T00:34:36;5.50;;;4.68;;
10565;SDS011;5331;48.148;16.326;2022-07-29T00:37:20;4.70;;;4.30;;
10565;SDS011;5331;48.148;16.326;2022-07-29T00:39:47;5.45;;;4.93;;
10565;SDS011;5331;48.148;16.326;2022-07-29T00:42:13;5.40;;;4.90;;
10565;SDS011;5331;48.148;16.326;2022-07-29T00:44:42;5.68;;;5.18;;
10565;SDS011;5331;48.148;16.326;2022-07-29T00:47:10;5.40;;;5.00;;
10565;SDS011;5331;48.148;16.326;2022-07-29T00:49:37;5.30;;;4.80;;
10565;SDS011;5331;48.148;16.326;2022-07-29T00:52:06;5.60;;;5.20;;
10565;SDS011;5331;48.148;16.326;2022-07-29T00:54:35;6.15;;;5.55;;
10565;SDS011;5331;48.148;16.326;2022-07-29T00:57:04;5.88;;;5.38;;
10565;SDS011;5331;48.148;16.326;2022-07-29T00:59:32;5.25;;;4.80;;
10565;SDS011;5331;48.148;16.326;2022-07-29T01:02:01;5.28;;;4.88;;
10565;SDS011;5331;48.148;16.326;2022-07-29T01:04:28;5.30;;;4.85;;
10565;SDS011;5331;48.148;16.326;2022-07-29T01:06:55;5.10;;;4.70;;
10565;SDS011;5331;48.148;16.326;2022-07-29T01:09:22;5.65;;;5.15;;
10565;SDS011;5331;48.148;16.326;2022-07-29T01:11:50;5.82;;;5.32;;
10565;SDS011;5331;48.148;16.326;2022-07-29T01:14:17;5.53;;;5.13;;
10565;SDS011;5331;48.148;16.326;2022-07-29T01:16:48;5.70;;;5.20;;
10565;SDS011;5331;48.148;16.326;2022-07-29T01:19:40;5.57;;;4.95;;
10565;SDS011;5331;48.148;16.326;2022-07-29T01:22:27;5.40;;;5.00;;
10565;SDS011;5331;48.148;16.326;2022-07-29T01:25:05;5.70;;;5.20;;
10565;SDS011;5331;48.148;16.326;2022-07-29T01:27:59;6.25;;;5.70;;
10565;SDS011;5331;48.148;16.326;2022-07-29T01:30:36;5.80;;;5.30;;
10565;SDS011;5331;48.148;16.326;2022-07-29T01:33:07;5.90;;;5.30;;
10565;SDS011;5331;48.148;16.326;2022-07-29T01:36:00;6.40;;;5.90;;
10565;SDS011;5331;48.148;16.326;2022-07-29T01:38:30;5.95;;;5.45;;
10565;SDS011;5331;48.148;16.326;2022-07-29T01:40:58;5.68;;;5.05;;
10565;SDS011;5331;48.148;16.326;2022-07-29T01:43:31;5.93;;;5.22;;
10565;SDS011;5331;48.148;16.326;2022-07-29T01:46:05;5.38;;;4.97;;
10565;SDS011;5331;48.148;16.326;2022-07-29T01:48:37;5.60;;;5.20;;
10565;SDS011;5331;48.148;16.326;2022-07-29T01:51:09;5.85;;;5.35;;
10565;SDS011;5331;48.148;16.326;2022-07-29T01:53:50;7.30;;;6.20;;
10565;SDS011;5331;48.148;16.326;2022-07-29T01:56:20;6.03;;;5.40;;
10565;SDS011;5331;48.148;16.326;2022-07-29T01:58:50;6.53;;;5.93;;
10565;SDS011;5331;48.148;16.326;2022-07-29T02:01:21;6.68;;;6.07;;
10565;SDS011;5331;48.148;16.326;2022-07-29T02:03:50;6.57;;;5.80;;
10565;SDS011;5331;48.148;16.326;2022-07-29T02:06:21;6.65;;;5.80;;
10565;SDS011;5331;48.148;16.326;2022-07-29T02:08:49;6.55;;;5.95;;
10565;SDS011;5331;48.148;16.326;2022-07-29T02:11:19;6.47;;;5.90;;
10565;SDS011;5331;48.148;16.326;2022-07-29T02:13:46;6.35;;;5.85;;
10565;SDS011;5331;48.148;16.326;2022-07-29T02:16:15;6.85;;;5.80;;
10565;SDS011;5331;48.148;16.326;2022-07-29T02:18:46;6.50;;;6.00;;
10565;SDS011;5331;48.148;16.326;2022-07-29T02:21:16;6.30;;;5.78;;
10565;SDS011;5331;48.148;16.326;2022-07-29T02:23:49;6.53;;;5.93;;
10565;SDS011;5331;48.148;16.326;2022-07-29T02:26:18;7.10;;;6.50;;
10565;SDS011;5331;48.148;16.326;2022-07-29T02:28:47;7.05;;;6.00;;
10565;SDS011;5331;48.148;16.326;2022-07-29T02:31:16;6.22;;;5.72;;
10565;SDS011;5331;48.148;16.326;2022-07-29T02:33:47;5.75;;;5.32;;
10565;SDS011;5331;48.148;16.326;2022-07-29T02:36:14;5.90;;;5.15;;
10565;SDS011;5331;48.148;16.326;2022-07-29T02:38:42;5.70;;;5.30;;
10565;SDS011;5331;48.148;16.326;2022-07-29T02:41:23;6.47;;;5.97;;
10565;SDS011;5331;48.148;16.326;2022-07-29T02:43:53;6.75;;;6.18;;
10565;SDS011;5331;48.148;16.326;2022-07-29T02:46:26;6.55;;;5.95;;
10565;SDS011;5331;48.148;16.326;2022-07-29T02:48:58;7.30;;;6.60;;
10565;SDS011;5331;48.148;16.326;2022-07-29T02:51:32;6.30;;;5.80;;
10565;SDS011;5331;48.148;16.326;2022-07-29T02:54:05;6.43;;;5.93;;
10565;SDS011;5331;48.148;16.326;2022-07-29T02:56:35;6.18;;;5.57;;
10565;SDS011;5331;48.148;16.326;2022-07-29T02:59:05;6.25;;;5.68;;
10565;SDS011;5331;48.148;16.326;2022-07-29T03:01:36;6.90;;;6.30;;
10565;SDS011;5331;48.148;16.326;2022-07-29T03:04:09;6.53;;;6.03;;
10565;SDS011;5331;48.148;16.326;2022-07-29T03:06:39;6.95;;;6.35;;
10565;SDS011;5331;48.148;16.326;2022-07-29T03:09:08;7.18;;;6.32;;
10565;SDS011;5331;48.148;16.326;2022-07-29T03:11:37;8.20;;;6.97;;
10565;SDS011;5331;48.148;16.326;2022-07-29T03:14:05;7.95;;;6.68;;
10565;SDS011;5331;48.148;16.326;2022-07-29T03:16:33;6.72;;;6.13;;
10565;SDS011;5331;48.148;16.326;2022-07-29T03:19:02;6.80;;;6.20;;
10565;SDS011;5331;48.148;16.326;2022-07-29T03:21:31;7.10;;;6.10;;
10565;SDS011;5331;48.148;16.326;2022-07-29T03:23:59;7.28;;;6.68;;
10565;SDS011;5331;48.148;16.326;2022-07-29T03:26:26;7.60;;;6.72;;
10565;SDS011;5331;48.148;16.326;2022-07-29T03:28:54;7.82;;;7.07;;
10565;SDS011;5331;48.148;16.326;2022-07-29T03:31:21;6.28;;;5.78;;
10565;SDS011;5331;48.148;16.326;2022-07-29T03:33:48;6.40;;;5.90;;
10565;SDS011;5331;48.148;16.326;2022-07-29T03:36:15;7.07;;;6.47;;
10565;SDS011;5331;48.148;16.326;2022-07-29T03:38:43;6.13;;;5.60;;
10565;SDS011;5331;48.148;16.326;2022-07-29T03:41:11;6.75;;;6.20;;
10565;SDS011;5331;48.148;16.326;2022-07-29T03:43:40;7.18;;;6.57;;
10565;SDS011;5331;48.148;16.326;2022-07-29T03:46:09;6.50;;;5.75;;
10565;SDS011;5331;48.148;16.326;2022-07-29T03:48:39;6.18;;;5.68;;
10565;SDS011;5331;48.148;16.326;2022-07-29T03:51:10;7.25;;;6.05;;
10565;SDS011;5331;48.148;16.326;2022-07-29T03:53:37;6.57;;;6.07;;
10565;SDS011;5331;48.148;16.326;2022-07-29T03:56:05;6.78;;;6.18;;
10565;SDS011;5331;48.148;16.326;2022-07-29T03:58:33;6.93;;;6.32;;
10565;SDS011;5331;48.148;16.326;2022-07-29T04:01:01;6.97;;;6.28;;
10565;SDS011;5331;48.148;16.326;2022-07-29T04:03:28;6.35;;;5.85;;
10565;SDS011;5331;48.148;16.326;2022-07-29T04:06:00;6.43;;;5.93;;
10565;SDS011;5331;48.148;16.326;2022-07-29T04:08:27;6.65;;;6.00;;
10565;SDS011;5331;48.148;16.326;2022-07-29T04:10:54;7.10;;;6.45;;
10565;SDS011;5331;48.148;16.326;2022-07-29T04:13:23;7.22;;;6.53;;
10565;SDS011;5331;48.148;16.326;2022-07-29T04:15:50;8.00;;;6.45;;
10565;SDS011;5331;48.148;16.326;2022-07-29T04:18:17;6.90;;;6.38;;
10565;SDS011;5331;48.148;16.326;2022-07-29T04:20:43;7.35;;;6.70;;
10565;SDS011;5331;48.148;16.326;2022-07-29T04:23:11;6.70;;;6.10;;
10565;SDS011;5331;48.148;16.326;2022-07-29T04:25:38;6.35;;;5.85;;
10565;SDS011;5331;48.148;16.326;2022-07-29T04:28:05;5.85;;;5.35;;
10565;SDS011;5331;48.148;16.326;2022-07-29T04:30:33;6.65;;;6.00;;
10565;SDS011;5331;48.148;16.326;2022-07-29T04:33:02;6.57;;;5.97;;
10565;SDS011;5331;48.148;16.326;2022-07-29T04:35:30;6.97;;;6.28;;
10565;SDS011;5331;48.148;16.326;2022-07-29T04:38:00;7.30;;;6.60;;
10565;SDS011;5331;48.148;16.326;2022-07-29T04:40:27;7.03;;;6.38;;
10565;SDS011;5331;48.148;16.326;2022-07-29T04:42:54;6.38;;;5.78;;
10565;SDS011;5331;48.148;16.326;2022-07-29T04:45:21;6.53;;;5.93;;
10565;SDS011;5331;48.148;16.326;2022-07-29T04:47:50;6.32;;;5.78;;
10565;SDS011;5331;48.148;16.326;2022-07-29T04:50:17;5.85;;;5.25;;
10565;SDS011;5331;48.148;16.326;2022-07-29T04:52:43;6.80;;;6.20;;
10565;SDS011;5331;48.148;16.326;2022-07-29T04:55:10;6.90;;;6.13;;
10565;SDS011;5331;48.148;16.326;2022-07-29T04:57:37;6.70;;;6.10;;
10565;SDS011;5331;48.148;16.326;2022-07-29T05:00:05;6.93;;;6.25;;
10565;SDS011;5331;48.148;16.326;2022-07-29T05:02:33;7.65;;;6.70;;
10565;SDS011;5331;48.148;16.326;2022-07-29T05:05:01;7.82;;;6.82;;
10565;SDS011;5331;48.148;16.326;2022-07-29T05:07:28;8.40;;;6.82;;
10565;SDS011;5331;48.148;16.326;2022-07-29T05:09:55;7.18;;;6.45;;
10565;SDS011;5331;48.148;16.326;2022-07-29T05:12:22;7.05;;;6.35;;
10565;SDS011;5331;48.148;16.326;2022-07-29T05:14:49;6.43;;;5.82;;
10565;SDS011;5331;48.148;16.326;2022-07-29T05:17:17;6.65;;;6.03;;
10565;SDS011;5331;48.148;16.326;2022-07-29T05:19:44;6.78;;;6.18;;
10565;SDS011;5331;48.148;16.326;2022-07-29T05:22:12;6.95;;;6.35;;
10565;SDS011;5331;48.148;16.326;2022-07-29T05:24:39;7.82;;;6.60;;
10565;SDS011;5331;48.148;16.326;2022-07-29T05:27:06;8.30;;;6.70;;
10565;SDS011;5331;48.148;16.326;2022-07-29T05:29:33;6.88;;;6.28;;
10565;SDS011;5331;48.148;16.326;2022-07-29T05:32:00;6.70;;;6.07;;
10565;SDS011;5331;48.148;16.326;2022-07-29T05:34:27;6.68;;;6.05;;
10565;SDS011;5331;48.148;16.326;2022-07-29T05:36:54;6.53;;;5.93;;
10565;SDS011;5331;48.148;16.326;2022-07-29T05:39:22;6.40;;;5.72;;
10565;SDS011;5331;48.148;16.326;2022-07-29T05:41:50;6.53;;;5.93;;
10565;SDS011;5331;48.148;16.326;2022-07-29T05:44:17;6.50;;;5.90;;
10565;SDS011;5331;48.148;16.326;2022-07-29T05:46:43;6.80;;;6.15;;
10565;SDS011;5331;48.148;16.326;2022-07-29T05:49:10;6.15;;;5.65;;
10565;SDS011;5331;48.148;16.326;2022-07-29T05:51:37;7.03;;;6.32;;
10565;SDS011;5331;48.148;16.326;2022-07-29T05:54:05;5.75;;;5.22;;
10565;SDS011;5331;48.148;16.326;2022-07-29T05:56:35;6.60;;;5.90;;
10565;SDS011;5331;48.148;16.326;2022-07-29T05:59:02;6.50;;;5.88;;
10565;SDS011;5331;48.148;16.326;2022-07-29T06:01:29;5.88;;;5.28;;
10565;SDS011;5331;48.148;16.326;2022-07-29T06:03:56;6.70;;;6.10;;
10565;SDS011;5331;48.148;16.326;2022-07-29T06:06:23;7.38;;;6.68;;
10565;SDS011;5331;48.148;16.326;2022-07-29T06:08:50;5.88;;;5.38;;
10565;SDS011;5331;48.148;16.326;2022-07-29T06:11:17;5.68;;;5.03;;
10565;SDS011;5331;48.148;16.326;2022-07-29T06:13:45;6.10;;;5.60;;
10565;SDS011;5331;48.148;16.326;2022-07-29T06:16:12;6.03;;;5.43;;
10565;SDS011;5331;48.148;16.326;2022-07-29T06:18:39;6.15;;;5.53;;
10565;SDS011;5331;48.148;16.326;2022-07-29T06:21:07;5.82;;;5.32;;
10565;SDS011;5331;48.148;16.326;2022-07-29T06:23:35;6.25;;;5.75;;
10565;SDS011;5331;48.148;16.326;2022-07-29T06:26:03;6.40;;;5.72;;
10565;SDS011;5331;48.148;16.326;2022-07-29T06:28:31;5.65;;;5.22;;
10565;SDS011;5331;48.148;16.326;2022-07-29T06:31:00;6.05;;;5.40;;
10565;SDS011;5331;48.148;16.326;2022-07-29T06:33:27;6.25;;;5.65;;
10565;SDS011;5331;48.148;16.326;2022-07-29T06:35:54;6.63;;;5.82;;
10565;SDS011;5331;48.148;16.326;2022-07-29T06:38:21;6.13;;;5.55;;
10565;SDS011;5331;48.148;16.326;2022-07-29T06:40:48;6.88;;;6.20;;
10565;SDS011;5331;48.148;16.326;2022-07-29T06:43:27;5.95;;;5.35;;
10565;SDS011;5331;48.148;16.326;2022-07-29T06:45:57;6.45;;;5.90;;
10565;SDS011;5331;48.148;16.326;2022-07-29T06:48:27;6.28;;;5.68;;
10565;SDS011;5331;48.148;16.326;2022-07-29T06:50:54;6.05;;;5.45;;
10565;SDS011;5331;48.148;16.326;2022-07-29T06:53:21;6.28;;;5.78;;
10565;SDS011;5331;48.148;16.326;2022-07-29T06:55:48;5.53;;;5.13;;
10565;SDS011;5331;48.148;16.326;2022-07-29T06:58:15;7.70;;;5.68;;
10565;SDS011;5331;48.148;16.326;2022-07-29T07:00:45;5.50;;;5.10;;
10565;SDS011;5331;48.148;16.326;2022-07-29T07:03:14;5.80;;;5.20;;
10565;SDS011;5331;48.148;16.326;2022-07-29T07:05:41;5.90;;;5.30;;
10565;SDS011;5331;48.148;16.326;2022-07-29T07:08:08;5.57;;;5.18;;
10565;SDS011;5331;48.148;16.326;2022-07-29T07:10:35;6.28;;;5.63;;
10565;SDS011;5331;48.148;16.326;2022-07-29T07:13:02;5.93;;;5.32;;
10565;SDS011;5331;48.148;16.326;2022-07-29T07:15:30;5.93;;;5.43;;
10565;SDS011;5331;48.148;16.326;2022-07-29T07:17:57;6.07;;;5.55;;
10565;SDS011;5331;48.148;16.326;2022-07-29T07:20:25;6.15;;;5.60;;
10565;SDS011;5331;48.148;16.326;2022-07-29T07:22:52;6.55;;;5.95;;
10565;SDS011;5331;48.148;16.326;2022-07-29T07:25:19;5.70;;;5.20;;
10565;SDS011;5331;48.148;16.326;2022-07-29T07:27:46;5.60;;;5.20;;
10565;SDS011;5331;48.148;16.326;2022-07-29T07:30:13;5.68;;;5.15;;
10565;SDS011;5331;48.148;16.326;2022-07-29T07:32:40;5.47;;;5.07;;
10565;SDS011;5331;48.148;16.326;2022-07-29T07:35:08;5.93;;;5.50;;
10565;SDS011;5331;48.148;16.326;2022-07-29T07:37:37;6.70;;;5.32;;
10565;SDS011;5331;48.148;16.326;2022-07-29T07:40:06;7.28;;;5.70;;
10565;SDS011;5331;48.148;16.326;2022-07-29T07:42:34;5.43;;;5.05;;
10565;SDS011;5331;48.148;16.326;2022-07-29T07:45:01;6.00;;;5.40;;
10565;SDS011;5331;48.148;16.326;2022-07-29T07:47:28;5.70;;;5.20;;
10565;SDS011;5331;48.148;16.326;2022-07-29T07:49:55;5.65;;;5.25;;
10565;SDS011;5331;48.148;16.326;2022-07-29T07:52:22;5.78;;;5.25;;
10565;SDS011;5331;48.148;16.326;2022-07-29T07:54:50;5.45;;;5.10;;
10565;SDS011;5331;48.148;16.326;2022-07-29T07:57:18;5.57;;;4.90;;
10565;SDS011;5331;48.148;16.326;2022-07-29T07:59:44;6.25;;;5.60;;
10565;SDS011;5331;48.148;16.326;2022-07-29T08:02:11;6.32;;;5.72;;
10565;SDS011;5331;48.148;16.326;2022-07-29T08:04:38;5.88;;;5.40;;
10565;SDS011;5331;48.148;16.326;2022-07-29T08:07:06;5.93;;;5.43;;
10565;SDS011;5331;48.148;16.326;2022-07-29T08:09:33;5.68;;;5.28;;
10565;SDS011;5331;48.148;16.326;2022-07-29T08:12:03;5.80;;;5.30;;
10565;SDS011;5331;48.148;16.326;2022-07-29T08:14:31;5.47;;;5.07;;
10565;SDS011;5331;48.148;16.326;2022-07-29T08:16:58;5.63;;;5.13;;
10565;SDS011;5331;48.148;16.326;2022-07-29T08:19:25;5.60;;;5.20;;
10565;SDS011;5331;48.148;16.326;2022-07-29T08:21:52;5.72;;;5.20;;
10565;SDS011;5331;48.148;16.326;2022-07-29T08:24:19;5.45;;;5.03;;
10565;SDS011;5331;48.148;16.326;2022-07-29T08:27:06;6.05;;;5.65;;
10565;SDS011;5331;48.148;16.326;2022-07-29T08:29:33;5.38;;;4.95;;
10565;SDS011;5331;48.148;16.326;2022-07-29T08:32:00;5.80;;;5.22;;
10565;SDS011;5331;48.148;16.326;2022-07-29T08:34:26;5.53;;;5.03;;
10565;SDS011;5331;48.148;16.326;2022-07-29T08:36:54;5.75;;;5.30;;
10565;SDS011;5331;48.148;16.326;2022-07-29T08:39:21;5.20;;;4.90;;
10565;SDS011;5331;48.148;16.326;2022-07-29T08:41:48;5.72;;;5.25;;
10565;SDS011;5331;48.148;16.326;2022-07-29T08:44:17;5.40;;;5.00;;
10565;SDS011;5331;48.148;16.326;2022-07-29T08:46:44;5.45;;;4.95;;
10565;SDS011;5331;48.148;16.326;2022-07-29T08:49:11;5.45;;;5.05;;
10565;SDS011;5331;48.148;16.326;2022-07-29T08:51:39;5.40;;;5.10;;
10565;SDS011;5331;48.148;16.326;2022-07-29T08:54:07;5.00;;;4.65;;
10565;SDS011;5331;48.148;16.326;2022-07-29T08:56:35;5.68;;;5.28;;
10565;SDS011;5331;48.148;16.326;2022-07-29T08:59:02;5.57;;;5.07;;
10565;SDS011;5331;48.148;16.326;2022-07-29T09:01:33;5.40;;;5.10;;
10565;SDS011;5331;48.148;16.326;2022-07-29T09:04:01;6.20;;;5.72;;
10565;SDS011;5331;48.148;16.326;2022-07-29T09:06:31;5.10;;;4.70;;
10565;SDS011;5331;48.148;16.326;2022-07-29T09:09:00;5.35;;;4.97;;
10565;SDS011;5331;48.148;16.326;2022-07-29T09:11:27;5.22;;;4.82;;
10565;SDS011;5331;48.148;16.326;2022-07-29T09:13:54;5.22;;;4.82;;
10565;SDS011;5331;48.148;16.326;2022-07-29T09:16:21;5.03;;;4.72;;
10565;SDS011;5331;48.148;16.326;2022-07-29T09:18:49;5.40;;;5.00;;
10565;SDS011;5331;48.148;16.326;2022-07-29T09:21:17;5.18;;;4.78;;
10565;SDS011;5331;48.148;16.326;2022-07-29T09:24:02;5.55;;;5.05;;
10565;SDS011;5331;48.148;16.326;2022-07-29T09:26:32;5.30;;;5.00;;
10565;SDS011;5331;48.148;16.326;2022-07-29T09:29:00;5.60;;;5.10;;
10565;SDS011;5331;48.148;16.326;2022-07-29T09:31:36;5.70;;;5.30;;
10565;SDS011;5331;48.148;16.326;2022-07-29T09:34:05;5.55;;;5.13;;
10565;SDS011;5331;48.148;16.326;2022-07-29T09:36:38;5.45;;;5.05;;
10565;SDS011;5331;48.148;16.326;2022-07-29T09:39:05;5.00;;;4.60;;
10565;SDS011;5331;48.148;16.326;2022-07-29T09:41:43;5.28;;;4.88;;
10565;SDS011;5331;48.148;16.326;2022-07-29T09:44:12;5.28;;;4.90;;
10565;SDS011;5331;48.148;16.326;2022-07-29T09:46:40;5.22;;;4.82;;
10565;SDS011;5331;48.148;16.326;2022-07-29T09:49:10;5.38;;;4.80;;
10565;SDS011;5331;48.148;16.326;2022-07-29T09:51:39;5.32;;;4.93;;
10565;SDS011;5331;48.148;16.326;2022-07-29T09:54:22;4.93;;;4.50;;
10565;SDS011;5331;48.148;16.326;2022-07-29T09:56:49;5.30;;;4.80;;
10565;SDS011;5331;48.148;16.326;2022-07-29T09:59:16;5.13;;;4.70;;
10565;SDS011;5331;48.148;16.326;2022-07-29T10:01:45;5.30;;;4.90;;
10565;SDS011;5331;48.148;16.326;2022-07-29T10:04:14;4.97;;;4.63;;
10565;SDS011;5331;48.148;16.326;2022-07-29T10:06:55;5.60;;;5.10;;
10565;SDS011;5331;48.148;16.326;2022-07-29T10:09:23;5.00;;;4.60;;
10565;SDS011;5331;48.148;16.326;2022-07-29T10:14:36;4.80;;;4.38;;
10565;SDS011;5331;48.148;16.326;2022-07-29T10:17:04;4.88;;;4.50;;
10565;SDS011;5331;48.148;16.326;2022-07-29T10:19:34;5.05;;;4.75;;
10565;SDS011;5331;48.148;16.326;2022-07-29T10:22:05;4.60;;;4.30;;
10565;SDS011;5331;48.148;16.326;2022-07-29T10:24:33;5.13;;;4.72;;
10565;SDS011;5331;48.148;16.326;2022-07-29T10:27:01;5.15;;;4.75;;
10565;SDS011;5331;48.148;16.326;2022-07-29T10:29:29;5.30;;;4.90;;
10565;SDS011;5331;48.148;16.326;2022-07-29T10:32:02;5.20;;;4.80;;
10565;SDS011;5331;48.148;16.326;2022-07-29T10:34:50;5.57;;;5.18;;
10565;SDS011;5331;48.148;16.326;2022-07-29T10:37:39;5.30;;;5.00;;
10565;SDS011;5331;48.148;16.326;2022-07-29T10:40:26;4.80;;;4.50;;
10565;SDS011;5331;48.148;16.326;2022-07-29T10:43:17;5.13;;;4.72;;
10565;SDS011;5331;48.148;16.326;2022-07-29T10:45:47;5.50;;;5.10;;
10565;SDS011;5331;48.148;16.326;2022-07-29T10:48:20;5.40;;;5.00;;
10565;SDS011;5331;48.148;16.326;2022-07-29T10:50:53;5.28;;;4.72;;
10565;SDS011;5331;48.148;16.326;2022-07-29T10:53:22;5.13;;;4.72;;
10565;SDS011;5331;48.148;16.326;2022-07-29T10:55:50;5.30;;;4.90;;
10565;SDS011;5331;48.148;16.326;2022-07-29T10:58:18;5.05;;;4.70;;
10565;SDS011;5331;48.148;16.326;2022-07-29T11:00:47;5.28;;;4.97;;
10565;SDS011;5331;48.148;16.326;2022-07-29T11:06:13;6.00;;;5.50;;
10565;SDS011;5331;48.148;16.326;2022-07-29T11:08:40;5.60;;;5.18;;
10565;SDS011;5331;48.148;16.326;2022-07-29T11:14:06;5.93;;;5.30;;
10565;SDS011;5331;48.148;16.326;2022-07-29T11:19:27;5.85;;;5.15;;
10565;SDS011;5331;48.148;16.326;2022-07-29T11:21:56;6.13;;;5.60;;
10565;SDS011;5331;48.148;16.326;2022-07-29T11:24:24;5.60;;;5.20;;
10565;SDS011;5331;48.148;16.326;2022-07-29T11:27:06;5.72;;;5.22;;
10565;SDS011;5331;48.148;16.326;2022-07-29T11:29:47;6.20;;;5.68;;
10565;SDS011;5331;48.148;16.326;2022-07-29T11:32:19;6.40;;;5.80;;
10565;SDS011;5331;48.148;16.326;2022-07-29T11:34:47;6.40;;;5.80;;
10565;SDS011;5331;48.148;16.326;2022-07-29T11:37:20;6.05;;;5.45;;
10565;SDS011;5331;48.148;16.326;2022-07-29T11:42:41;6.10;;;5.50;;
10565;SDS011;5331;48.148;16.326;2022-07-29T11:45:17;6.00;;;5.50;;
10565;SDS011;5331;48.148;16.326;2022-07-29T11:47:52;5.68;;;5.22;;
10565;SDS011;5331;48.148;16.326;2022-07-29T11:50:27;7.88;;;5.65;;
10565;SDS011;5331;48.148;16.326;2022-07-29T11:53:00;7.53;;;5.60;;
10565;SDS011;5331;48.148;16.326;2022-07-29T11:55:29;5.68;;;5.30;;
10565;SDS011;5331;48.148;16.326;2022-07-29T11:58:01;6.63;;;6.03;;
10565;SDS011;5331;48.148;16.326;2022-07-29T12:00:29;5.63;;;5.18;;
10565;SDS011;5331;48.148;16.326;2022-07-29T12:02:57;6.45;;;5.40;;
10565;SDS011;5331;48.148;16.326;2022-07-29T12:05:33;6.10;;;5.57;;
10565;SDS011;5331;48.148;16.326;2022-07-29T12:08:06;6.15;;;5.65;;
10565;SDS011;5331;48.148;16.326;2022-07-29T12:10:39;5.50;;;5.10;;
10565;SDS011;5331;48.148;16.326;2022-07-29T12:13:06;5.75;;;5.25;;
10565;SDS011;5331;48.148;16.326;2022-07-29T12:15:33;5.50;;;5.00;;
10565;SDS011;5331;48.148;16.326;2022-07-29T12:18:09;5.75;;;5.22;;
10565;SDS011;5331;48.148;16.326;2022-07-29T12:20:36;5.88;;;5.30;;
10565;SDS011;5331;48.148;16.326;2022-07-29T12:23:04;5.97;;;5.47;;
10565;SDS011;5331;48.148;16.326;2022-07-29T12:25:34;5.80;;;5.45;;
10565;SDS011;5331;48.148;16.326;2022-07-29T12:28:03;6.03;;;5.53;;
10565;SDS011;5331;48.148;16.326;2022-07-29T12:33:18;6.15;;;5.65;;
10565;SDS011;5331;48.148;16.326;2022-07-29T12:35:48;5.90;;;5.32;;
10565;SDS011;5331;48.148;16.326;2022-07-29T12:38:19;5.93;;;5.50;;
10565;SDS011;5331;48.148;16.326;2022-07-29T23:47:47;9.18;;;8.40;;
10565;SDS011;5331;48.148;16.326;2022-07-29T23:50:14;9.13;;;8.43;;
10565;SDS011;5331;48.148;16.326;2022-07-29T23:52:41;9.02;;;8.25;;
10565;SDS011;5331;48.148;16.326;2022-07-29T23:55:08;8.27;;;7.50;;
10565;SDS011;5331;48.148;16.326;2022-07-29T23:57:36;8.25;;;7.50;;
